createdAt,value
2019-04-05T00:14:25.667Z,90.90
2019-04-05T00:25:31.841Z,90.89
2019-04-05T00:48:57.287Z,91.01
2019-04-05T00:52:24.911Z,91.29
2019-04-05T00:59:16.618Z,91.79
2019-04-05T01:02:42.644Z,92.05
2019-04-05T01:05:54.718Z,91.99
2019-04-05T01:08:59.793Z,91.83
2019-04-05T01:13:03.826Z,91.91
2019-04-05T01:24:51.079Z,92.30
2019-04-05T01:28:04.749Z,92.31
2019-04-05T01:34:48.891Z,92.25
2019-04-05T01:38:19.711Z,92.28
2019-04-05T01:58:29.831Z,92.44
2019-04-05T02:01:36.458Z,92.63
2019-04-05T02:05:40.687Z,92.77
2019-04-05T02:11:56.854Z,92.47
2019-04-05T02:15:02.445Z,91.82
2019-04-05T02:18:13.593Z,92.02
2019-04-05T02:21:36.849Z,92.15
2019-04-05T02:29:15.195Z,92.04
2019-04-05T02:32:46.018Z,91.37
2019-04-05T02:35:53.620Z,91.33
2019-04-05T02:38:58.782Z,91.69
2019-04-05T02:42:10.384Z,91.81
2019-04-05T02:45:18.472Z,92.14
2019-04-05T02:48:24.538Z,92.44
2019-04-05T02:55:28.578Z,92.52
2019-04-05T02:58:41.595Z,92.52
2019-04-05T03:01:58.618Z,92.60
2019-04-05T03:05:38.554Z,92.34
2019-04-05T03:35:08.449Z,92.45
2019-04-05T03:38:13.550Z,92.05
2019-04-05T03:41:38.384Z,92.15
2019-04-05T03:44:44.877Z,92.32
2019-04-05T03:48:07.120Z,91.89
2019-04-05T03:55:32.563Z,90.47
2019-04-05T03:58:37.602Z,91.07
2019-04-05T04:12:01.421Z,92.04
2019-04-05T04:19:08.551Z,91.89
2019-04-05T04:22:30.080Z,92.07
2019-04-05T04:25:34.733Z,92.29
2019-04-05T04:28:39.740Z,92.36
2019-04-05T04:31:44.153Z,92.32
2019-04-05T04:34:48.846Z,92.58
2019-04-05T04:37:53.147Z,92.84
2019-04-05T04:40:57.564Z,93.16
2019-04-05T04:44:01.991Z,93.22
2019-04-05T04:47:07.341Z,93.38
2019-04-05T04:50:12.429Z,93.65
2019-04-05T04:53:17.003Z,93.73
2019-04-05T04:56:21.486Z,93.87
2019-04-05T04:59:26.196Z,94.02
2019-04-05T05:02:30.628Z,94.02
2019-04-05T05:05:35.476Z,94.11
2019-04-05T05:08:39.870Z,94.23
2019-04-05T05:11:44.250Z,94.31
2019-04-05T05:14:49.050Z,94.22
2019-04-05T05:17:58.829Z,94.27
2019-04-05T05:21:00.137Z,94.22
2019-04-05T05:24:04.771Z,94.14
2019-04-05T05:27:09.165Z,93.86
2019-04-05T05:30:13.682Z,93.12
2019-04-05T05:33:17.985Z,93.22
2019-04-05T05:36:22.707Z,93.38
2019-04-05T05:39:27.087Z,93.44
2019-04-05T05:42:31.491Z,92.96
2019-04-05T05:45:35.882Z,92.78
2019-04-05T05:48:40.864Z,91.85
2019-04-05T05:51:45.789Z,91.01
2019-04-05T05:54:50.085Z,91.21
2019-04-05T05:57:56.162Z,91.01
2019-04-05T06:01:00.409Z,90.17
2019-04-05T06:04:04.793Z,87.85
2019-04-05T06:07:09.085Z,87.34
2019-04-05T06:10:13.539Z,86.73
2019-04-05T06:13:17.828Z,86.77
2019-04-05T06:16:22.147Z,86.01
2019-04-05T06:19:26.495Z,85.61
2019-04-05T06:22:30.765Z,85.35
2019-04-05T06:25:35.264Z,86.27
2019-04-05T06:28:39.622Z,86.46
2019-04-05T06:31:44.556Z,85.93
2019-04-05T06:34:48.920Z,86.12
2019-04-05T06:37:53.222Z,85.89
2019-04-05T06:40:57.523Z,85.93
2019-04-05T06:44:01.818Z,84.26
2019-04-05T06:47:06.107Z,83.59
2019-04-05T06:50:10.527Z,84.27
2019-04-05T06:53:14.869Z,84.64
2019-04-05T06:56:19.167Z,84.60
2019-04-05T06:59:23.438Z,85.29
2019-04-05T07:02:27.803Z,85.33
2019-04-05T07:05:32.267Z,85.56
2019-04-05T07:08:36.654Z,83.75
2019-04-05T07:11:40.946Z,82.72
2019-04-05T07:14:45.238Z,82.90
2019-04-05T07:17:49.523Z,83.69
2019-04-05T07:20:53.815Z,83.89
2019-04-05T07:23:58.119Z,83.15
2019-04-05T07:27:02.416Z,83.44
2019-04-05T07:30:07.770Z,82.21
2019-04-05T07:33:12.099Z,81.09
2019-04-05T07:36:16.412Z,80.62
2019-04-05T07:39:20.707Z,80.82
2019-04-05T07:42:25.010Z,81.49
2019-04-05T07:45:29.364Z,80.44
2019-04-05T07:48:44.199Z,80.63
2019-04-05T07:51:39.693Z,80.51
2019-04-05T07:54:44.029Z,79.68
2019-04-05T07:57:48.333Z,80.03
2019-04-05T08:00:54.252Z,80.31
2019-04-05T08:03:58.566Z,79.94
2019-04-05T08:07:05.092Z,79.22
2019-04-05T08:10:09.709Z,79.95
2019-04-05T08:13:15.406Z,80.03
2019-04-05T08:16:19.711Z,78.65
2019-04-05T08:19:24.030Z,77.79
2019-04-05T08:22:28.333Z,77.69
2019-04-05T08:25:32.635Z,77.45
2019-04-05T08:28:36.946Z,77.28
2019-04-05T08:31:41.247Z,77.06
2019-04-05T08:34:45.587Z,77.00
2019-04-05T08:37:49.908Z,78.29
2019-04-05T08:40:54.219Z,77.69
2019-04-05T08:43:58.527Z,77.37
2019-04-05T08:47:02.886Z,77.86
2019-04-05T08:50:08.226Z,77.28
2019-04-05T08:53:12.682Z,77.73
2019-04-05T08:56:17.036Z,78.04
2019-04-05T08:59:21.342Z,78.02
2019-04-05T09:02:25.665Z,78.14
2019-04-05T09:05:33.145Z,77.91
2019-04-05T09:08:35.986Z,78.21
2019-04-05T09:11:40.302Z,78.18
2019-04-05T09:14:44.625Z,77.94
2019-04-05T09:17:48.940Z,78.27
2019-04-05T09:20:53.262Z,77.69
2019-04-05T09:23:59.279Z,77.32
2019-04-05T09:27:03.912Z,77.15
2019-04-05T09:30:08.484Z,77.33
2019-04-05T09:33:12.777Z,77.85
2019-04-05T09:36:17.097Z,77.38
2019-04-05T09:39:21.485Z,77.15
2019-04-05T09:42:25.818Z,77.19
2019-04-05T09:45:30.129Z,76.37
2019-04-05T09:48:34.438Z,75.58
2019-04-05T09:51:38.766Z,75.49
2019-04-05T09:54:43.063Z,75.17
2019-04-05T09:57:47.377Z,75.12
2019-04-05T10:00:51.699Z,75.21
2019-04-05T10:03:56.017Z,76.10
2019-04-05T10:07:00.323Z,74.82
2019-04-05T10:10:04.756Z,74.81
2019-04-05T10:13:09.985Z,72.90
2019-04-05T10:16:14.372Z,72.93
2019-04-05T10:19:18.865Z,71.68
2019-04-05T10:22:32.020Z,71.87
2019-04-05T10:25:36.478Z,72.04
2019-04-05T10:28:40.945Z,72.45
2019-04-05T10:31:45.498Z,71.09
2019-04-05T10:34:50.048Z,71.77
2019-04-05T10:37:54.601Z,71.50
2019-04-05T10:41:00.324Z,70.64
2019-04-05T10:44:06.612Z,71.15
2019-04-05T10:47:11.048Z,71.48
2019-04-05T10:50:16.129Z,71.40
2019-04-05T10:53:25.416Z,72.69
2019-04-05T10:56:29.846Z,71.30
2019-04-05T10:59:34.251Z,72.80
2019-04-05T11:02:39.523Z,73.38
2019-04-05T11:05:51.720Z,72.85
2019-04-05T11:09:05.435Z,72.46
2019-04-05T11:12:10.034Z,73.78
2019-04-05T11:15:35.833Z,74.34
2019-04-05T11:18:44.918Z,73.73
2019-04-05T11:22:00.100Z,74.62
2019-04-05T11:25:06.453Z,73.58
2019-04-05T11:28:17.168Z,73.14
2019-04-05T11:31:38.542Z,73.33
2019-04-05T11:34:44.950Z,72.94
2019-04-05T11:37:55.391Z,72.25
2019-04-05T11:41:04.581Z,73.00
2019-04-05T11:44:17.224Z,73.11
2019-04-05T11:47:21.975Z,71.30
2019-04-05T11:50:34.473Z,72.01
2019-04-05T11:53:33.713Z,71.53
2019-04-05T11:56:38.222Z,71.74
2019-04-05T11:59:42.757Z,71.45
2019-04-05T12:02:50.742Z,71.15
2019-04-05T12:05:55.290Z,71.78
2019-04-05T12:09:01.373Z,71.10
2019-04-05T12:12:12.032Z,71.64
2019-04-05T12:15:16.749Z,72.04
2019-04-05T12:18:21.458Z,72.37
2019-04-05T12:21:29.095Z,72.78
2019-04-05T12:24:33.796Z,73.27
2019-04-05T12:27:44.679Z,73.80
2019-04-05T12:30:51.165Z,73.58
2019-04-05T12:34:01.742Z,72.73
2019-04-05T12:37:06.438Z,72.44
2019-04-05T12:40:16.745Z,73.64
2019-04-05T12:43:21.406Z,74.54
2019-04-05T12:46:26.119Z,74.71
2019-04-05T12:49:30.724Z,73.70
2019-04-05T12:52:35.430Z,73.70
2019-04-05T12:56:02.366Z,73.84
2019-04-05T12:59:06.909Z,72.95
2019-04-05T13:02:18.890Z,73.06
2019-04-05T13:05:25.804Z,72.55
2019-04-05T13:08:30.612Z,72.43
2019-04-05T13:11:35.346Z,71.52
2019-04-05T13:14:42.909Z,71.76
2019-04-05T13:17:50.716Z,71.01
2019-04-05T13:24:43.726Z,71.61
2019-04-05T13:27:48.438Z,71.77
2019-04-05T13:31:05.239Z,71.67
2019-04-05T13:34:12.770Z,71.35
2019-04-05T13:37:26.410Z,69.86
2019-04-05T13:41:06.612Z,70.55
2019-04-05T13:51:45.833Z,69.67
2019-04-05T13:55:13.318Z,70.58
2019-04-05T13:58:39.726Z,70.26
2019-04-05T14:02:05.312Z,69.06
2019-04-05T14:05:01.453Z,70.36
2019-04-05T14:08:10.305Z,69.25
2019-04-05T14:14:43.683Z,70.49
2019-04-05T14:18:22.043Z,70.28
2019-04-05T14:22:09.309Z,69.50
2019-04-05T14:25:23.469Z,69.16
2019-04-05T14:28:47.259Z,69.46
2019-04-05T14:35:55.498Z,69.05
2019-04-05T14:39:10.480Z,69.51
2019-04-05T14:43:04.259Z,69.84
2019-04-05T14:49:42.196Z,69.21
2019-04-05T14:52:49.624Z,69.86
2019-04-05T14:56:05.747Z,69.60
2019-04-05T14:59:15.141Z,69.62
2019-04-05T15:02:31.299Z,70.13
2019-04-05T15:05:39.320Z,71.04
2019-04-05T15:08:47.848Z,71.42
2019-04-05T15:15:27.422Z,72.48
2019-04-05T15:18:32.006Z,72.66
2019-04-05T15:22:22.827Z,72.98
2019-04-05T15:25:30.815Z,73.02
2019-04-05T15:28:35.653Z,72.87
2019-04-05T15:31:40.099Z,73.10
2019-04-05T15:34:44.821Z,73.86
2019-04-05T15:37:49.546Z,72.19
2019-04-05T15:41:00.067Z,72.24
2019-04-05T15:44:05.497Z,71.89
2019-04-05T15:47:10.160Z,71.58
2019-04-05T15:50:19.694Z,71.48
2019-04-05T15:53:24.608Z,71.03
2019-04-05T15:56:49.924Z,70.55
2019-04-05T16:00:17.158Z,70.70
2019-04-05T16:03:21.780Z,70.41
2019-04-05T16:06:26.825Z,70.41
2019-04-05T16:09:33.114Z,71.07
2019-04-05T16:12:38.804Z,70.85
2019-04-05T16:15:43.796Z,71.96
2019-04-05T16:19:10.027Z,72.23
2019-04-05T16:22:14.892Z,73.52
2019-04-05T16:25:28.491Z,74.45
2019-04-05T16:28:35.215Z,75.11
2019-04-05T16:32:15.801Z,75.60
2019-04-05T16:35:26.327Z,76.15
2019-04-05T16:38:30.820Z,76.36
2019-04-05T16:42:01.974Z,76.91
2019-04-05T16:45:07.976Z,76.55
2019-04-05T16:48:24.042Z,75.86
2019-04-05T16:51:28.573Z,76.45
2019-04-05T16:54:59.026Z,76.11
2019-04-05T16:57:42.828Z,75.48
2019-04-05T17:00:47.685Z,76.69
2019-04-05T17:03:58.455Z,76.46
2019-04-05T17:07:14.945Z,76.49
2019-04-05T17:10:32.975Z,77.26
2019-04-05T17:13:42.411Z,77.73
2019-04-05T17:16:49.324Z,77.95
2019-04-05T17:19:56.849Z,77.91
2019-04-05T17:23:01.765Z,77.49
2019-04-05T17:26:12.674Z,77.75
2019-04-05T17:29:31.524Z,77.65
2019-04-05T17:37:01.622Z,78.50
2019-04-05T17:40:24.175Z,78.98
2019-04-05T17:43:36.061Z,79.38
2019-04-05T17:47:11.993Z,79.44
2019-04-05T18:06:14.151Z,82.23
2019-04-05T18:09:18.764Z,82.30
2019-04-05T18:12:46.162Z,83.25
2019-04-05T18:20:27.006Z,83.82
2019-04-05T18:23:36.042Z,83.62
2019-04-05T18:27:29.199Z,83.70
2019-04-05T18:31:01.589Z,84.18
2019-04-05T18:34:13.890Z,84.91
2019-04-05T18:37:49.797Z,85.44
2019-04-05T18:41:53.744Z,85.83
2019-04-05T18:49:20.608Z,85.97
2019-04-05T19:00:30.333Z,86.40
2019-04-05T19:11:12.894Z,86.25
2019-04-05T19:29:38.435Z,85.85
2019-04-05T19:51:30.921Z,87.97
2019-04-05T19:54:38.471Z,88.14
2019-04-05T19:57:43.460Z,88.87
2019-04-05T20:00:48.725Z,88.13
2019-04-05T20:03:54.068Z,87.63
2019-04-05T20:07:00.938Z,87.59
2019-04-05T20:10:06.487Z,87.91
2019-04-05T20:13:23.710Z,88.18
2019-04-05T20:16:28.694Z,88.41
2019-04-05T20:19:36.339Z,87.88
2019-04-05T20:22:43.540Z,88.54
2019-04-05T20:25:48.419Z,88.64
2019-04-05T20:28:57.275Z,88.05
2019-04-05T20:32:02.226Z,87.72
2019-04-05T20:35:07.700Z,87.10
2019-04-05T20:38:15.477Z,87.61
2019-04-05T20:41:23.349Z,88.33
2019-04-05T20:44:31.710Z,87.96
2019-04-05T20:47:36.461Z,88.44
2019-04-05T20:50:41.249Z,88.77
2019-04-05T20:53:45.922Z,88.99
2019-04-05T20:56:50.510Z,89.12
2019-04-05T21:03:24.442Z,88.57
2019-04-05T21:06:29.142Z,88.30
2019-04-05T21:12:59.694Z,86.76
2019-04-05T21:16:04.759Z,86.58
2019-04-05T21:20:02.646Z,86.55
2019-04-05T21:23:16.227Z,86.00
2019-04-05T21:26:21.194Z,85.42
2019-04-05T21:29:25.986Z,85.12
2019-04-05T21:32:49.180Z,84.62
2019-04-05T21:35:54.140Z,84.86
2019-04-05T21:39:04.303Z,84.41
2019-04-05T21:42:09.046Z,84.21
2019-04-05T21:45:14.085Z,84.85
2019-04-05T21:48:18.618Z,85.16
2019-04-05T21:51:24.713Z,85.23
2019-04-05T21:54:29.472Z,85.70
2019-04-05T21:57:34.004Z,85.63
2019-04-05T22:01:13.007Z,85.67
2019-04-05T22:04:17.689Z,86.30
2019-04-05T22:07:22.655Z,86.39
2019-04-05T22:10:47.285Z,86.91
2019-04-05T22:13:51.791Z,87.19
2019-04-05T22:16:59.319Z,87.51
2019-04-05T22:20:06.096Z,87.43
2019-04-05T22:26:51.739Z,87.42
2019-04-05T22:30:11.642Z,87.52
2019-04-05T22:33:16.641Z,88.00
2019-04-05T22:36:41.829Z,88.20
2019-04-05T22:39:48.182Z,88.24
2019-04-05T22:42:56.330Z,88.41
2019-04-05T22:46:05.425Z,88.26
2019-04-05T22:49:17.935Z,88.63
2019-04-05T22:56:33.458Z,89.28
2019-04-05T22:59:49.886Z,89.53
2019-04-05T23:03:21.980Z,89.46
2019-04-05T23:14:43.534Z,88.14
2019-04-05T23:17:50.236Z,88.78
2019-04-05T23:21:04.954Z,88.94
2019-04-05T23:24:30.516Z,89.73
2019-04-05T23:27:44.607Z,90.19
2019-04-05T23:37:52.435Z,91.31
2019-04-05T23:40:57.633Z,91.75
2019-04-05T23:44:05.045Z,91.90
2019-04-05T23:47:09.665Z,92.33
2019-04-05T23:50:14.929Z,91.93
2019-04-05T23:53:19.547Z,92.14
2019-04-05T23:56:47.723Z,92.68
2019-04-05T23:59:53.005Z,92.90
